createdAt,value
2023-07-30T00:01:07.863Z,17.78
2023-07-30T00:03:35.299Z,17.87
2023-07-30T00:06:02.569Z,17.92
2023-07-30T00:08:29.863Z,17.95
2023-07-30T00:11:00.433Z,17.87
2023-07-30T00:13:27.639Z,18.03
2023-07-30T00:15:55.056Z,18.25
2023-07-30T00:18:22.332Z,18.55
2023-07-30T00:20:49.611Z,18.82
2023-07-30T00:23:16.783Z,18.84
2023-07-30T00:25:44.018Z,18.89
2023-07-30T00:28:11.401Z,18.92
2023-07-30T00:30:38.667Z,18.90
2023-07-30T00:33:05.946Z,18.88
2023-07-30T00:35:33.854Z,18.88
2023-07-30T00:38:01.141Z,18.88
2023-07-30T00:40:28.417Z,18.81
2023-07-30T00:42:55.769Z,18.66
2023-07-30T00:45:23.167Z,18.56
2023-07-30T00:47:50.820Z,18.47
2023-07-30T00:50:19.484Z,18.37
2023-07-30T00:52:47.150Z,18.32
2023-07-30T00:55:16.136Z,18.29
2023-07-30T00:57:44.127Z,18.29
2023-07-30T01:00:13.304Z,18.17
2023-07-30T01:02:41.235Z,18.10
2023-07-30T01:05:08.749Z,18.06
2023-07-30T01:07:35.977Z,18.13
2023-07-30T01:10:04.518Z,18.14
2023-07-30T01:12:34.081Z,18.14
2023-07-30T01:15:02.116Z,18.05
2023-07-30T01:17:29.564Z,18.00
2023-07-30T01:19:56.916Z,17.99
2023-07-30T01:22:25.198Z,17.97
2023-07-30T01:24:53.330Z,17.97
2023-07-30T01:27:26.784Z,17.97
2023-07-30T01:30:09.340Z,17.92
2023-07-30T01:32:38.580Z,17.94
2023-07-30T01:35:08.879Z,17.87
2023-07-30T01:37:37.697Z,17.89
2023-07-30T01:40:06.006Z,17.78
2023-07-30T01:42:33.327Z,17.81
2023-07-30T01:45:00.609Z,17.79
2023-07-30T01:47:27.888Z,17.79
2023-07-30T01:49:55.217Z,17.79
2023-07-30T01:52:22.458Z,17.67
2023-07-30T01:54:49.665Z,17.77
2023-07-30T01:57:16.910Z,17.69
2023-07-30T01:59:44.452Z,17.60
2023-07-30T02:02:11.709Z,17.61
2023-07-30T02:04:39.018Z,17.67
2023-07-30T02:07:06.541Z,17.60
2023-07-30T02:09:33.843Z,17.51
2023-07-30T02:12:02.305Z,17.40
2023-07-30T02:14:29.596Z,17.42
2023-07-30T02:17:01.922Z,17.47
2023-07-30T02:19:29.223Z,17.51
2023-07-30T02:21:56.531Z,17.54
2023-07-30T02:24:23.745Z,17.71
2023-07-30T02:26:50.952Z,17.73
2023-07-30T02:29:18.522Z,17.74
2023-07-30T02:31:46.032Z,17.84
2023-07-30T02:34:13.308Z,17.86
2023-07-30T02:36:40.501Z,17.78
2023-07-30T02:39:07.814Z,17.85
2023-07-30T02:41:35.514Z,17.79
2023-07-30T02:44:03.087Z,17.70
2023-07-30T02:46:31.369Z,17.69
2023-07-30T02:49:00.999Z,17.66
2023-07-30T02:51:28.281Z,17.72
2023-07-30T02:54:02.627Z,17.64
2023-07-30T02:56:29.912Z,17.54
2023-07-30T02:58:58.341Z,17.63
2023-07-30T03:01:25.837Z,17.74
2023-07-30T03:03:53.284Z,17.88
2023-07-30T03:06:20.626Z,18.04
2023-07-30T03:08:47.969Z,18.17
2023-07-30T03:11:15.239Z,18.11
2023-07-30T03:13:42.611Z,18.12
2023-07-30T03:16:09.901Z,18.02
2023-07-30T03:18:37.089Z,17.92
2023-07-30T03:21:04.754Z,17.94
2023-07-30T03:23:32.731Z,18.07
2023-07-30T03:26:01.599Z,18.15
2023-07-30T03:28:30.103Z,18.22
2023-07-30T03:30:57.442Z,18.14
2023-07-30T03:33:24.743Z,18.10
2023-07-30T03:35:51.997Z,18.08
2023-07-30T03:38:19.210Z,18.09
2023-07-30T03:40:46.371Z,18.21
2023-07-30T03:43:13.729Z,18.31
2023-07-30T03:45:41.003Z,18.43
2023-07-30T03:48:08.377Z,18.56
2023-07-30T03:50:35.712Z,18.60
2023-07-30T03:53:02.964Z,18.75
2023-07-30T03:55:30.678Z,18.85
2023-07-30T03:57:59.605Z,19.01
2023-07-30T04:00:26.892Z,19.21
2023-07-30T04:02:54.376Z,19.32
2023-07-30T04:05:21.595Z,19.64
2023-07-30T04:07:49.007Z,20.06
2023-07-30T04:10:16.474Z,20.31
2023-07-30T04:12:43.803Z,20.76
2023-07-30T04:15:11.158Z,20.79
2023-07-30T04:17:38.966Z,20.75
2023-07-30T04:20:07.305Z,20.53
2023-07-30T04:22:34.677Z,20.56
2023-07-30T04:25:02.080Z,20.67
2023-07-30T04:27:31.425Z,20.79
2023-07-30T04:30:00.049Z,20.96
2023-07-30T04:32:27.338Z,21.16
2023-07-30T04:34:54.660Z,21.73
2023-07-30T04:37:22.166Z,21.87
2023-07-30T04:39:50.468Z,22.04
2023-07-30T04:42:17.723Z,22.53
2023-07-30T04:44:45.752Z,22.95
2023-07-30T04:47:16.336Z,22.98
2023-07-30T04:49:43.717Z,23.38
2023-07-30T04:52:11.997Z,23.66
2023-07-30T04:54:39.591Z,23.96
2023-07-30T04:57:07.237Z,24.24
2023-07-30T04:59:37.688Z,24.89
2023-07-30T05:02:05.204Z,25.15
2023-07-30T05:04:32.538Z,25.31
2023-07-30T05:06:59.789Z,25.41
2023-07-30T05:09:27.571Z,25.34
2023-07-30T05:11:54.964Z,25.38
2023-07-30T05:14:22.345Z,25.48
2023-07-30T05:16:49.621Z,25.64
2023-07-30T05:19:18.095Z,25.55
2023-07-30T05:21:45.506Z,25.57
2023-07-30T05:24:12.812Z,25.38
2023-07-30T05:26:40.080Z,25.55
2023-07-30T05:29:07.444Z,25.90
2023-07-30T05:31:35.639Z,26.38
2023-07-30T05:34:02.942Z,26.87
2023-07-30T05:36:30.188Z,27.30
2023-07-30T05:38:57.624Z,27.74
2023-07-30T05:41:24.913Z,27.72
2023-07-30T05:43:52.358Z,27.96
2023-07-30T05:46:19.841Z,28.23
2023-07-30T05:48:47.210Z,28.40
2023-07-30T05:51:14.486Z,28.82
2023-07-30T05:53:41.766Z,28.85
2023-07-30T05:56:09.051Z,28.55
2023-07-30T05:58:36.337Z,28.64
2023-07-30T06:01:03.634Z,28.80
2023-07-30T06:03:30.914Z,29.37
2023-07-30T06:05:58.146Z,29.35
2023-07-30T06:08:25.444Z,29.56
2023-07-30T06:10:52.749Z,29.92
2023-07-30T06:13:20.004Z,30.53
2023-07-30T06:15:47.810Z,30.66
2023-07-30T06:18:15.194Z,30.74
2023-07-30T06:20:42.439Z,31.74
2023-07-30T06:23:09.810Z,32.48
2023-07-30T06:25:37.062Z,32.88
2023-07-30T06:28:05.284Z,32.42
2023-07-30T06:30:34.190Z,32.30
2023-07-30T06:33:01.522Z,31.76
2023-07-30T06:35:28.858Z,31.84
2023-07-30T06:37:56.118Z,31.45
2023-07-30T06:40:23.764Z,31.73
2023-07-30T06:42:51.000Z,31.62
2023-07-30T06:45:18.463Z,31.86
2023-07-30T06:47:45.811Z,31.53
2023-07-30T06:50:13.212Z,31.57
2023-07-30T06:52:40.454Z,31.53
2023-07-30T06:55:08.438Z,31.90
2023-07-30T06:57:35.876Z,32.00
2023-07-30T07:00:04.648Z,32.21
2023-07-30T07:02:32.087Z,32.07
2023-07-30T07:04:59.498Z,32.49
2023-07-30T07:07:26.715Z,32.57
2023-07-30T07:09:54.079Z,32.45
2023-07-30T07:12:21.441Z,32.44
2023-07-30T07:14:49.473Z,33.09
2023-07-30T07:17:16.833Z,32.88
2023-07-30T07:19:44.049Z,33.00
2023-07-30T07:22:11.419Z,33.54
2023-07-30T07:24:38.659Z,33.75
2023-07-30T07:27:06.479Z,33.77
2023-07-30T07:29:33.692Z,33.70
2023-07-30T07:32:00.914Z,33.70
2023-07-30T07:34:28.299Z,33.64
2023-07-30T07:36:55.631Z,33.30
2023-07-30T07:39:23.024Z,32.99
2023-07-30T07:41:50.252Z,32.88
2023-07-30T07:44:17.676Z,32.60
2023-07-30T07:46:45.054Z,32.01
2023-07-30T07:49:12.350Z,31.58
2023-07-30T07:51:39.896Z,32.10
2023-07-30T07:54:07.376Z,31.91
2023-07-30T07:56:34.833Z,31.73
2023-07-30T07:59:02.448Z,31.69
2023-07-30T08:01:30.032Z,31.47
2023-07-30T08:03:57.990Z,31.01
2023-07-30T08:06:25.346Z,30.65
2023-07-30T08:08:52.676Z,30.94
2023-07-30T08:11:20.065Z,31.19
2023-07-30T08:13:47.411Z,31.34
2023-07-30T08:16:15.088Z,31.63
2023-07-30T08:18:42.455Z,31.61
2023-07-30T08:21:09.944Z,31.55
2023-07-30T08:23:37.191Z,30.97
2023-07-30T08:26:04.480Z,31.08
2023-07-30T08:28:31.675Z,30.61
2023-07-30T08:31:03.449Z,29.97
2023-07-30T08:33:30.776Z,29.69
2023-07-30T08:35:58.421Z,29.32
2023-07-30T08:38:26.391Z,28.78
2023-07-30T08:40:53.643Z,28.38
2023-07-30T08:43:21.152Z,28.43
2023-07-30T08:45:48.560Z,28.44
2023-07-30T08:48:15.965Z,28.13
2023-07-30T08:50:44.165Z,28.12
2023-07-30T08:53:12.152Z,28.09
2023-07-30T08:55:41.452Z,27.81
2023-07-30T08:58:10.867Z,27.44
2023-07-30T09:00:42.084Z,27.89
2023-07-30T09:03:11.881Z,27.95
2023-07-30T09:05:39.808Z,27.99
2023-07-30T09:08:08.114Z,28.23
2023-07-30T09:10:35.519Z,28.21
2023-07-30T09:13:04.272Z,28.20
2023-07-30T09:15:39.737Z,27.95
2023-07-30T09:18:08.905Z,28.05
2023-07-30T09:20:43.461Z,28.05
2023-07-30T09:23:13.562Z,27.61
2023-07-30T09:25:40.936Z,27.28
2023-07-30T09:28:08.502Z,27.25
2023-07-30T09:30:35.961Z,26.98
2023-07-30T09:33:03.311Z,26.92
2023-07-30T09:35:35.446Z,26.86
2023-07-30T09:38:05.318Z,26.75
2023-07-30T09:40:38.037Z,26.68
2023-07-30T09:43:06.856Z,26.66
2023-07-30T09:45:38.186Z,26.74
2023-07-30T09:48:08.637Z,26.85
2023-07-30T09:50:37.828Z,26.55
2023-07-30T09:53:06.031Z,26.38
2023-07-30T09:55:33.497Z,26.49
2023-07-30T09:58:01.125Z,26.53
2023-07-30T10:00:30.641Z,26.48
2023-07-30T10:03:02.941Z,26.56
2023-07-30T10:05:38.041Z,26.80
2023-07-30T10:08:18.137Z,26.95
2023-07-30T10:10:45.572Z,27.38
2023-07-30T10:13:14.207Z,27.87
2023-07-30T10:15:41.863Z,28.40
2023-07-30T10:18:09.230Z,28.66
2023-07-30T10:20:37.824Z,28.39
2023-07-30T10:23:06.709Z,28.03
2023-07-30T10:25:46.306Z,27.75
2023-07-30T10:28:32.019Z,27.94
2023-07-30T10:31:02.691Z,27.54
2023-07-30T10:33:47.172Z,27.54
2023-07-30T10:36:15.454Z,27.69
2023-07-30T10:38:43.358Z,27.54
2023-07-30T10:41:14.921Z,27.14
2023-07-30T10:43:47.210Z,26.97
2023-07-30T10:46:17.784Z,26.97
2023-07-30T10:48:50.055Z,26.72
2023-07-30T10:51:21.725Z,26.48
2023-07-30T10:53:51.588Z,25.93
2023-07-30T10:56:24.992Z,25.94
2023-07-30T10:58:56.330Z,25.78
2023-07-30T11:01:28.039Z,25.78
2023-07-30T11:03:55.568Z,25.46
2023-07-30T11:06:27.936Z,25.28
2023-07-30T11:08:55.491Z,25.40
2023-07-30T11:11:25.733Z,25.15
2023-07-30T11:13:53.338Z,25.17
2023-07-30T11:16:20.787Z,25.26
2023-07-30T11:18:48.919Z,25.28
2023-07-30T11:21:18.524Z,25.51
2023-07-30T11:23:47.477Z,25.54
2023-07-30T11:26:20.914Z,25.59
2023-07-30T11:28:48.744Z,25.72
2023-07-30T11:31:20.801Z,25.79
2023-07-30T11:33:50.196Z,25.78
2023-07-30T11:36:23.906Z,25.68
2023-07-30T11:38:54.235Z,25.76
2023-07-30T11:41:24.270Z,25.84
2023-07-30T11:43:52.823Z,25.75
2023-07-30T11:46:23.495Z,25.69
2023-07-30T11:48:54.172Z,25.78
2023-07-30T11:51:30.423Z,25.68
2023-07-30T11:54:00.486Z,25.55
2023-07-30T11:56:33.389Z,25.66
2023-07-30T11:59:06.401Z,25.91
2023-07-30T12:01:36.686Z,25.95
2023-07-30T12:04:07.259Z,25.77
2023-07-30T12:06:49.883Z,25.76
2023-07-30T12:09:22.513Z,25.49
2023-07-30T12:11:54.396Z,25.58
2023-07-30T12:14:31.198Z,25.56
2023-07-30T12:17:00.212Z,25.74
2023-07-30T12:19:27.617Z,25.55
2023-07-30T12:21:55.220Z,25.66
2023-07-30T12:24:23.606Z,25.68
2023-07-30T12:26:53.101Z,25.88
2023-07-30T12:29:23.392Z,25.60
2023-07-30T12:31:53.125Z,25.49
2023-07-30T12:34:21.234Z,25.23
2023-07-30T12:36:48.546Z,25.19
2023-07-30T12:39:16.030Z,25.31
2023-07-30T12:41:43.391Z,25.74
2023-07-30T12:44:10.957Z,25.88
2023-07-30T12:46:38.413Z,26.00
2023-07-30T12:49:06.167Z,25.92
2023-07-30T12:51:34.336Z,25.79
2023-07-30T12:54:01.955Z,25.75
2023-07-30T12:56:29.330Z,25.98
2023-07-30T12:58:56.726Z,25.63
2023-07-30T13:01:25.006Z,25.73
2023-07-30T13:03:54.809Z,25.80
2023-07-30T13:06:22.534Z,25.90
2023-07-30T13:08:50.008Z,25.87
2023-07-30T13:11:17.288Z,25.86
2023-07-30T13:13:44.646Z,25.94
2023-07-30T13:16:12.011Z,26.16
2023-07-30T13:18:39.353Z,26.20
2023-07-30T13:21:07.079Z,26.23
2023-07-30T13:23:34.571Z,26.06
2023-07-30T13:26:02.834Z,25.75
2023-07-30T13:28:30.339Z,25.72
2023-07-30T13:30:58.404Z,25.40
2023-07-30T13:33:25.786Z,25.59
2023-07-30T13:35:53.153Z,25.43
2023-07-30T13:38:22.607Z,25.43
2023-07-30T13:40:50.210Z,25.40
2023-07-30T13:43:17.494Z,25.53
2023-07-30T13:45:44.965Z,25.04
2023-07-30T13:48:12.495Z,25.28
2023-07-30T13:50:39.923Z,25.01
2023-07-30T13:53:07.371Z,24.81
2023-07-30T13:55:34.983Z,24.89
2023-07-30T13:58:02.502Z,24.78
2023-07-30T14:00:32.714Z,24.80
2023-07-30T14:03:00.068Z,24.58
2023-07-30T14:05:29.632Z,24.52
2023-07-30T14:08:00.154Z,24.68
2023-07-30T14:10:28.517Z,24.64
2023-07-30T14:12:55.876Z,24.57
2023-07-30T14:15:23.692Z,24.46
2023-07-30T14:17:53.106Z,24.34
2023-07-30T14:20:20.811Z,24.25
2023-07-30T14:22:48.252Z,24.19
2023-07-30T14:25:15.886Z,24.15
2023-07-30T14:27:43.171Z,24.20
2023-07-30T14:30:11.007Z,24.03
2023-07-30T14:32:38.371Z,24.15
2023-07-30T14:35:06.525Z,24.02
2023-07-30T14:37:33.811Z,23.81
2023-07-30T14:40:01.246Z,24.08
2023-07-30T14:42:28.579Z,24.13
2023-07-30T14:44:55.878Z,23.94
2023-07-30T14:47:23.650Z,23.82
2023-07-30T14:49:52.755Z,23.78
2023-07-30T14:52:20.255Z,23.39
2023-07-30T14:54:47.551Z,23.31
2023-07-30T14:57:14.868Z,23.26
2023-07-30T14:59:42.560Z,22.86
2023-07-30T15:02:10.797Z,22.78
2023-07-30T15:04:38.268Z,22.91
2023-07-30T15:07:06.215Z,22.83
2023-07-30T15:09:36.314Z,22.76
2023-07-30T15:12:05.768Z,22.44
2023-07-30T15:14:33.359Z,22.50
2023-07-30T15:17:00.613Z,22.38
2023-07-30T15:19:27.899Z,22.50
2023-07-30T15:21:55.267Z,22.38
2023-07-30T15:24:22.814Z,22.45
2023-07-30T15:26:50.257Z,22.39
2023-07-30T15:29:17.798Z,22.45
2023-07-30T15:31:46.231Z,22.55
2023-07-30T15:34:14.724Z,22.80
2023-07-30T15:36:42.365Z,22.97
2023-07-30T15:39:09.701Z,23.21
2023-07-30T15:41:37.940Z,23.32
2023-07-30T15:44:05.443Z,23.29
2023-07-30T15:46:32.881Z,23.40
2023-07-30T15:49:00.369Z,23.48
2023-07-30T15:51:29.841Z,23.56
2023-07-30T15:53:57.437Z,23.42
2023-07-30T15:56:24.815Z,23.44
2023-07-30T15:58:52.041Z,23.14
2023-07-30T16:01:19.494Z,22.93
2023-07-30T16:03:46.911Z,22.76
2023-07-30T16:06:14.351Z,22.71
2023-07-30T16:08:41.681Z,22.79
2023-07-30T16:11:11.318Z,22.68
2023-07-30T16:13:38.781Z,22.67
2023-07-30T16:16:24.293Z,22.72
2023-07-30T16:18:51.559Z,22.74
2023-07-30T16:21:18.971Z,22.68
2023-07-30T16:23:46.720Z,22.79
2023-07-30T16:26:14.210Z,22.72
2023-07-30T16:28:44.982Z,22.33
2023-07-30T16:31:12.662Z,22.11
2023-07-30T16:33:40.323Z,22.29
2023-07-30T16:36:08.256Z,22.37
2023-07-30T16:38:36.836Z,22.42
2023-07-30T16:41:04.276Z,22.24
2023-07-30T16:43:31.742Z,22.12
2023-07-30T16:46:05.093Z,22.15
2023-07-30T16:48:33.061Z,22.25
2023-07-30T16:51:00.564Z,22.21
2023-07-30T16:53:28.058Z,22.10
2023-07-30T16:55:57.343Z,22.10
2023-07-30T16:58:24.671Z,22.04
2023-07-30T17:01:02.445Z,22.00
2023-07-30T17:03:31.695Z,22.05
2023-07-30T17:06:03.032Z,22.00
2023-07-30T17:08:31.224Z,21.93
2023-07-30T17:10:58.908Z,21.92
2023-07-30T17:13:26.329Z,21.76
2023-07-30T17:15:53.697Z,21.73
2023-07-30T17:18:22.601Z,21.72
2023-07-30T17:21:00.160Z,21.73
2023-07-30T17:23:28.019Z,21.63
2023-07-30T17:25:57.864Z,21.58
2023-07-30T17:28:25.561Z,21.50
2023-07-30T17:30:53.447Z,21.47
2023-07-30T17:33:21.336Z,21.46
2023-07-30T17:35:49.580Z,21.32
2023-07-30T17:38:17.471Z,21.35
2023-07-30T17:40:55.980Z,21.14
2023-07-30T17:43:24.228Z,21.04
2023-07-30T17:45:52.309Z,20.87
2023-07-30T17:48:20.261Z,20.84
2023-07-30T17:50:48.474Z,20.73
2023-07-30T17:53:16.144Z,20.66
2023-07-30T17:55:44.476Z,20.52
2023-07-30T17:58:12.286Z,20.39
2023-07-30T18:00:48.766Z,20.09
2023-07-30T18:03:16.316Z,19.85
2023-07-30T18:05:49.349Z,19.66
2023-07-30T18:08:17.972Z,19.61
2023-07-30T18:10:47.661Z,19.56
2023-07-30T18:13:15.938Z,19.33
2023-07-30T18:15:43.611Z,19.14
2023-07-30T18:18:14.159Z,19.02
2023-07-30T18:20:43.086Z,18.85
2023-07-30T18:23:10.513Z,18.66
2023-07-30T18:25:37.895Z,18.52
2023-07-30T18:28:05.264Z,18.38
2023-07-30T18:30:33.027Z,18.21
2023-07-30T18:33:00.711Z,18.09
2023-07-30T18:35:28.122Z,18.06
2023-07-30T18:37:55.436Z,17.95
2023-07-30T18:40:24.001Z,17.84
2023-07-30T18:42:51.363Z,17.78
2023-07-30T18:45:18.919Z,17.78
2023-07-30T18:47:46.417Z,17.70
2023-07-30T18:50:13.860Z,17.57
2023-07-30T18:52:41.194Z,17.52
2023-07-30T18:55:09.037Z,17.49
2023-07-30T18:57:36.558Z,17.53
2023-07-30T19:00:05.073Z,17.53
2023-07-30T19:02:32.697Z,17.55
2023-07-30T19:05:00.218Z,17.58
2023-07-30T19:07:27.679Z,17.63
2023-07-30T19:09:55.154Z,17.58
2023-07-30T19:12:22.587Z,17.56
2023-07-30T19:14:49.968Z,17.51
2023-07-30T19:17:22.454Z,17.44
2023-07-30T19:19:50.304Z,17.37
2023-07-30T19:22:18.470Z,17.32
2023-07-30T19:24:46.661Z,17.34
2023-07-30T19:27:14.106Z,17.37
2023-07-30T19:29:41.541Z,17.27
2023-07-30T19:32:08.965Z,17.19
2023-07-30T19:34:36.277Z,17.17
2023-07-30T19:37:03.917Z,17.24
2023-07-30T19:39:31.263Z,17.38
2023-07-30T19:41:58.756Z,17.32
2023-07-30T19:44:26.172Z,17.22
2023-07-30T19:46:53.637Z,17.17
2023-07-30T19:49:21.634Z,17.17
2023-07-30T19:51:49.820Z,17.21
2023-07-30T19:54:17.989Z,17.35
2023-07-30T19:56:45.516Z,17.62
2023-07-30T19:59:12.827Z,17.81
2023-07-30T20:01:40.361Z,17.85
2023-07-30T20:04:07.779Z,17.72
2023-07-30T20:06:35.156Z,17.56
2023-07-30T20:09:02.624Z,17.59
2023-07-30T20:11:30.105Z,17.67
2023-07-30T20:13:57.455Z,17.69
2023-07-30T20:16:25.046Z,17.66
2023-07-30T20:18:52.437Z,17.79
2023-07-30T20:21:23.547Z,17.94
2023-07-30T20:23:52.434Z,18.08
2023-07-30T20:26:19.876Z,18.25
2023-07-30T20:28:56.739Z,18.39
2023-07-30T20:31:24.431Z,18.50
2023-07-30T20:33:51.846Z,18.49
2023-07-30T20:36:19.435Z,18.40
2023-07-30T20:38:46.771Z,18.56
2023-07-30T20:41:14.203Z,18.59
2023-07-30T20:43:43.216Z,18.56
2023-07-30T20:46:15.048Z,18.61
2023-07-30T20:48:43.151Z,18.59
2023-07-30T20:51:12.237Z,18.71
2023-07-30T20:53:39.718Z,18.57
2023-07-30T20:56:07.556Z,18.55
2023-07-30T20:58:34.889Z,18.60
2023-07-30T21:01:02.240Z,18.59
2023-07-30T21:03:29.654Z,18.40
2023-07-30T21:05:56.976Z,18.18
2023-07-30T21:08:24.308Z,18.12
2023-07-30T21:10:51.693Z,18.11
2023-07-30T21:13:18.992Z,18.14
2023-07-30T21:15:49.831Z,18.26
2023-07-30T21:18:17.966Z,18.40
2023-07-30T21:20:45.286Z,18.42
2023-07-30T21:23:12.865Z,18.48
2023-07-30T21:25:40.116Z,18.52
2023-07-30T21:28:07.364Z,18.59
2023-07-30T21:30:34.801Z,18.62
2023-07-30T21:33:02.289Z,18.70
2023-07-30T21:35:29.722Z,18.70
2023-07-30T21:37:56.910Z,18.72
2023-07-30T21:40:24.148Z,18.77
2023-07-30T21:42:51.480Z,18.86
2023-07-30T21:45:18.818Z,18.92
2023-07-30T21:47:46.354Z,18.92
2023-07-30T21:50:13.730Z,19.04
2023-07-30T21:52:42.554Z,19.00
2023-07-30T21:55:10.051Z,19.00
2023-07-30T21:57:37.280Z,19.10
2023-07-30T22:00:05.830Z,19.21
2023-07-30T22:02:34.758Z,19.19
2023-07-30T22:05:02.184Z,19.17
2023-07-30T22:07:29.554Z,19.18
2023-07-30T22:09:56.970Z,19.19
2023-07-30T22:12:24.187Z,19.14
2023-07-30T22:14:51.595Z,19.18
2023-07-30T22:17:18.850Z,19.05
2023-07-30T22:19:46.249Z,19.04
2023-07-30T22:22:13.604Z,18.87
2023-07-30T22:24:41.065Z,18.90
2023-07-30T22:27:08.390Z,18.84
2023-07-30T22:29:35.667Z,18.80
2023-07-30T22:32:03.012Z,18.79
2023-07-30T22:34:30.347Z,18.65
2023-07-30T22:36:57.586Z,18.65
2023-07-30T22:39:25.522Z,18.62
2023-07-30T22:41:52.819Z,18.66
2023-07-30T22:44:20.150Z,18.58
2023-07-30T22:46:47.476Z,18.48
2023-07-30T22:49:14.731Z,18.40
2023-07-30T22:51:42.077Z,18.34
2023-07-30T22:54:09.254Z,18.20
2023-07-30T22:56:37.256Z,18.16
2023-07-30T22:59:04.787Z,18.13
2023-07-30T23:01:32.119Z,18.05
2023-07-30T23:03:59.432Z,17.95
2023-07-30T23:06:27.328Z,17.81
2023-07-30T23:08:54.599Z,17.79
2023-07-30T23:11:21.918Z,17.75
2023-07-30T23:13:49.182Z,17.67
2023-07-30T23:16:16.526Z,17.75
2023-07-30T23:18:44.781Z,17.85
2023-07-30T23:21:12.076Z,17.94
2023-07-30T23:23:39.544Z,17.91
2023-07-30T23:26:06.741Z,17.88
2023-07-30T23:28:34.050Z,17.96
2023-07-30T23:31:01.360Z,17.94
2023-07-30T23:33:28.624Z,17.91
2023-07-30T23:35:55.946Z,17.83
2023-07-30T23:38:23.226Z,17.80
2023-07-30T23:40:50.582Z,17.72
2023-07-30T23:43:17.761Z,17.64
2023-07-30T23:45:45.135Z,17.65
2023-07-30T23:48:12.581Z,17.65
2023-07-30T23:50:46.352Z,17.63
2023-07-30T23:53:20.014Z,17.59
2023-07-30T23:55:47.222Z,17.51
2023-07-30T23:58:14.456Z,17.51
